sensor_id;sensor_type;location;lat;lon;timestamp;pressure;altitude;pressure_sealevel;temperature;humidity
66396;BME280;53207;51.378;-1.342;2023-03-14T00:01:29;97386.35;;;18.49;38.37
66396;BME280;53207;51.378;-1.342;2023-03-14T00:03:57;97389.69;;;18.56;38.27
66396;BME280;53207;51.378;-1.342;2023-03-14T00:06:24;97395.74;;;18.52;38.47
66396;BME280;53207;51.378;-1.342;2023-03-14T00:08:52;97440.45;;;18.57;38.40
66396;BME280;53207;51.378;-1.342;2023-03-14T00:11:21;97482.14;;;18.35;38.82
66396;BME280;53207;51.378;-1.342;2023-03-14T00:13:49;97495.82;;;18.34;38.80
66396;BME280;53207;51.378;-1.342;2023-03-14T00:16:17;97503.00;;;18.40;38.63
66396;BME280;53207;51.378;-1.342;2023-03-14T00:18:44;97510.06;;;18.38;38.64
66396;BME280;53207;51.378;-1.342;2023-03-14T00:21:12;97522.10;;;18.45;38.46
66396;BME280;53207;51.378;-1.342;2023-03-14T00:23:41;97530.96;;;18.32;38.71
66396;BME280;53207;51.378;-1.342;2023-03-14T00:26:11;97536.96;;;18.18;38.92
66396;BME280;53207;51.378;-1.342;2023-03-14T00:28:39;97547.52;;;18.39;38.45
66396;BME280;53207;51.378;-1.342;2023-03-14T00:31:08;97554.63;;;18.05;39.02
66396;BME280;53207;51.378;-1.342;2023-03-14T00:33:36;97552.81;;;18.13;38.85
66396;BME280;53207;51.378;-1.342;2023-03-14T00:36:06;97559.70;;;18.22;38.67
66396;BME280;53207;51.378;-1.342;2023-03-14T00:38:34;97575.58;;;18.08;38.83
66396;BME280;53207;51.378;-1.342;2023-03-14T00:41:03;97576.51;;;18.25;38.45
66396;BME280;53207;51.378;-1.342;2023-03-14T00:43:31;97592.41;;;18.08;38.72
66396;BME280;53207;51.378;-1.342;2023-03-14T00:45:59;97606.69;;;18.32;38.27
66396;BME280;53207;51.378;-1.342;2023-03-14T00:48:26;97613.64;;;18.23;38.32
66396;BME280;53207;51.378;-1.342;2023-03-14T00:50:53;97621.15;;;18.43;38.36
66396;BME280;53207;51.378;-1.342;2023-03-14T00:53:21;97633.04;;;18.22;38.28
66396;BME280;53207;51.378;-1.342;2023-03-14T00:55:48;97644.45;;;18.38;38.42
66396;BME280;53207;51.378;-1.342;2023-03-14T00:58:17;97650.16;;;18.18;38.26
66396;BME280;53207;51.378;-1.342;2023-03-14T01:00:45;97658.04;;;18.43;38.27
66396;BME280;53207;51.378;-1.342;2023-03-14T01:03:14;97663.33;;;18.12;38.36
66396;BME280;53207;51.378;-1.342;2023-03-14T01:05:41;97676.26;;;17.94;38.54
66396;BME280;53207;51.378;-1.342;2023-03-14T01:08:08;97686.11;;;18.51;38.35
66396;BME280;53207;51.378;-1.342;2023-03-14T01:10:38;97697.90;;;17.94;38.51
66396;BME280;53207;51.378;-1.342;2023-03-14T01:13:05;97704.62;;;17.93;38.42
66396;BME280;53207;51.378;-1.342;2023-03-14T01:15:33;97701.97;;;18.20;38.42
66396;BME280;53207;51.378;-1.342;2023-03-14T01:18:00;97715.00;;;18.31;38.55
66396;BME280;53207;51.378;-1.342;2023-03-14T01:20:27;97717.78;;;18.13;38.42
66396;BME280;53207;51.378;-1.342;2023-03-14T01:22:55;97728.93;;;18.14;38.42
66396;BME280;53207;51.378;-1.342;2023-03-14T01:25:22;97729.49;;;17.85;38.35
66396;BME280;53207;51.378;-1.342;2023-03-14T01:27:50;97737.86;;;18.23;38.49
66396;BME280;53207;51.378;-1.342;2023-03-14T01:30:17;97747.46;;;17.98;38.49
66396;BME280;53207;51.378;-1.342;2023-03-14T01:32:44;97756.86;;;18.02;38.38
66396;BME280;53207;51.378;-1.342;2023-03-14T01:35:12;97761.18;;;18.18;38.44
66396;BME280;53207;51.378;-1.342;2023-03-14T01:37:39;97777.61;;;17.90;38.50
66396;BME280;53207;51.378;-1.342;2023-03-14T01:40:09;97782.25;;;17.69;38.35
66396;BME280;53207;51.378;-1.342;2023-03-14T01:42:36;97792.41;;;17.94;38.38
66396;BME280;53207;51.378;-1.342;2023-03-14T01:45:04;97797.65;;;17.92;38.34
66396;BME280;53207;51.378;-1.342;2023-03-14T01:47:32;97803.09;;;18.13;38.34
66396;BME280;53207;51.378;-1.342;2023-03-14T01:50:02;97807.95;;;18.14;38.25
66396;BME280;53207;51.378;-1.342;2023-03-14T01:52:33;97815.25;;;17.78;38.43
66396;BME280;53207;51.378;-1.342;2023-03-14T01:55:05;97827.39;;;17.85;38.30
66396;BME280;53207;51.378;-1.342;2023-03-14T01:57:35;97840.88;;;18.11;38.19
66396;BME280;53207;51.378;-1.342;2023-03-14T02:00:08;97843.44;;;17.77;38.29
66396;BME280;53207;51.378;-1.342;2023-03-14T02:02:35;97858.59;;;17.74;38.31
66396;BME280;53207;51.378;-1.342;2023-03-14T02:05:03;97864.27;;;18.00;38.24
66396;BME280;53207;51.378;-1.342;2023-03-14T02:07:35;97880.79;;;17.96;38.25
66396;BME280;53207;51.378;-1.342;2023-03-14T02:10:05;97882.04;;;17.95;38.21
66396;BME280;53207;51.378;-1.342;2023-03-14T02:12:35;97889.17;;;17.94;38.20
66396;BME280;53207;51.378;-1.342;2023-03-14T02:15:04;97898.69;;;17.67;38.24
66396;BME280;53207;51.378;-1.342;2023-03-14T02:17:31;97905.25;;;17.95;38.08
66396;BME280;53207;51.378;-1.342;2023-03-14T02:20:11;97919.41;;;17.59;38.24
66396;BME280;53207;51.378;-1.342;2023-03-14T02:22:43;97924.86;;;17.78;38.23
66396;BME280;53207;51.378;-1.342;2023-03-14T02:25:15;97932.21;;;17.64;38.09
66396;BME280;53207;51.378;-1.342;2023-03-14T02:27:45;97934.92;;;17.88;38.00
66396;BME280;53207;51.378;-1.342;2023-03-14T02:30:21;97947.70;;;17.70;38.20
66396;BME280;53207;51.378;-1.342;2023-03-14T02:32:52;97949.21;;;17.75;38.11
66396;BME280;53207;51.378;-1.342;2023-03-14T02:35:23;97959.74;;;17.80;38.00
66396;BME280;53207;51.378;-1.342;2023-03-14T02:37:54;97964.40;;;17.66;38.12
66396;BME280;53207;51.378;-1.342;2023-03-14T02:40:22;97973.03;;;17.67;38.07
66396;BME280;53207;51.378;-1.342;2023-03-14T02:42:49;97985.27;;;17.73;37.98
66396;BME280;53207;51.378;-1.342;2023-03-14T02:45:39;97994.15;;;17.61;38.11
66396;BME280;53207;51.378;-1.342;2023-03-14T02:48:11;98003.14;;;17.71;37.89
66396;BME280;53207;51.378;-1.342;2023-03-14T02:50:40;98015.62;;;17.56;38.06
66396;BME280;53207;51.378;-1.342;2023-03-14T02:53:08;98020.55;;;17.61;37.98
66396;BME280;53207;51.378;-1.342;2023-03-14T02:55:35;98025.78;;;17.65;37.87
66396;BME280;53207;51.378;-1.342;2023-03-14T02:58:02;98027.30;;;17.73;37.76
66396;BME280;53207;51.378;-1.342;2023-03-14T03:00:29;98035.43;;;17.83;37.84
66396;BME280;53207;51.378;-1.342;2023-03-14T03:02:56;98037.99;;;17.56;37.88
66396;BME280;53207;51.378;-1.342;2023-03-14T03:05:24;98044.42;;;17.58;37.82
66396;BME280;53207;51.378;-1.342;2023-03-14T03:07:51;98051.35;;;17.48;37.93
66396;BME280;53207;51.378;-1.342;2023-03-14T03:10:18;98058.95;;;17.50;37.86
66396;BME280;53207;51.378;-1.342;2023-03-14T03:12:46;98062.17;;;17.52;37.81
66396;BME280;53207;51.378;-1.342;2023-03-14T03:15:13;98063.14;;;17.51;37.77
66396;BME280;53207;51.378;-1.342;2023-03-14T03:17:40;98072.92;;;17.41;37.82
66396;BME280;53207;51.378;-1.342;2023-03-14T03:20:09;98073.76;;;17.65;37.77
66396;BME280;53207;51.378;-1.342;2023-03-14T03:22:37;98084.07;;;17.63;37.74
66396;BME280;53207;51.378;-1.342;2023-03-14T03:25:07;98086.45;;;17.39;37.74
66396;BME280;53207;51.378;-1.342;2023-03-14T03:27:36;98091.90;;;17.56;37.78
66396;BME280;53207;51.378;-1.342;2023-03-14T03:30:05;98102.00;;;17.42;37.64
66396;BME280;53207;51.378;-1.342;2023-03-14T03:32:32;98101.34;;;17.31;37.72
66396;BME280;53207;51.378;-1.342;2023-03-14T03:34:59;98103.94;;;17.56;37.66
66396;BME280;53207;51.378;-1.342;2023-03-14T03:37:27;98115.06;;;17.28;37.69
66396;BME280;53207;51.378;-1.342;2023-03-14T03:39:54;98117.67;;;17.51;37.67
66396;BME280;53207;51.378;-1.342;2023-03-14T03:42:22;98119.62;;;17.28;37.65
66396;BME280;53207;51.378;-1.342;2023-03-14T03:44:49;98129.64;;;17.29;37.58
66396;BME280;53207;51.378;-1.342;2023-03-14T03:47:16;98130.97;;;17.29;37.53
66396;BME280;53207;51.378;-1.342;2023-03-14T03:49:43;98137.56;;;17.16;37.64
66396;BME280;53207;51.378;-1.342;2023-03-14T03:52:11;98141.05;;;17.21;37.54
66396;BME280;53207;51.378;-1.342;2023-03-14T03:54:38;98137.02;;;17.19;37.53
66396;BME280;53207;51.378;-1.342;2023-03-14T03:57:05;98145.27;;;17.28;37.66
66396;BME280;53207;51.378;-1.342;2023-03-14T03:59:33;98144.79;;;17.10;37.57
66396;BME280;53207;51.378;-1.342;2023-03-14T04:02:00;98156.03;;;17.30;37.58
66396;BME280;53207;51.378;-1.342;2023-03-14T04:04:27;98159.32;;;17.32;37.54
66396;BME280;53207;51.378;-1.342;2023-03-14T04:06:55;98170.60;;;17.29;37.54
66396;BME280;53207;51.378;-1.342;2023-03-14T04:09:22;98176.13;;;17.33;37.46
66396;BME280;53207;51.378;-1.342;2023-03-14T04:11:49;98179.45;;;17.04;37.50
66396;BME280;53207;51.378;-1.342;2023-03-14T04:14:17;98171.43;;;17.49;37.53
66396;BME280;53207;51.378;-1.342;2023-03-14T04:16:44;98179.08;;;17.33;37.37
66396;BME280;53207;51.378;-1.342;2023-03-14T04:19:11;98181.51;;;17.22;37.47
66396;BME280;53207;51.378;-1.342;2023-03-14T04:21:39;98181.89;;;17.16;37.49
66396;BME280;53207;51.378;-1.342;2023-03-14T04:24:06;98186.40;;;16.99;37.43
66396;BME280;53207;51.378;-1.342;2023-03-14T04:26:33;98191.76;;;17.15;37.44
66396;BME280;53207;51.378;-1.342;2023-03-14T04:29:01;98200.25;;;16.90;37.44
66396;BME280;53207;51.378;-1.342;2023-03-14T04:31:28;98205.69;;;17.12;37.42
66396;BME280;53207;51.378;-1.342;2023-03-14T04:33:55;98214.08;;;16.88;37.43
66396;BME280;53207;51.378;-1.342;2023-03-14T04:36:23;98216.06;;;16.76;37.53
66396;BME280;53207;51.378;-1.342;2023-03-14T04:38:50;98217.50;;;17.11;37.36
66396;BME280;53207;51.378;-1.342;2023-03-14T04:41:17;98220.07;;;17.05;37.40
66396;BME280;53207;51.378;-1.342;2023-03-14T04:43:45;98229.41;;;17.05;37.34
66396;BME280;53207;51.378;-1.342;2023-03-14T04:46:12;98233.75;;;17.04;37.34
66396;BME280;53207;51.378;-1.342;2023-03-14T04:48:39;98235.40;;;17.17;37.46
66396;BME280;53207;51.378;-1.342;2023-03-14T04:51:07;98247.83;;;16.75;37.37
66396;BME280;53207;51.378;-1.342;2023-03-14T04:53:35;98255.75;;;16.91;37.40
66396;BME280;53207;51.378;-1.342;2023-03-14T04:56:02;98265.37;;;16.91;37.38
66396;BME280;53207;51.378;-1.342;2023-03-14T04:58:29;98276.16;;;16.77;37.53
66396;BME280;53207;51.378;-1.342;2023-03-14T05:01:02;98282.83;;;16.90;37.32
66396;BME280;53207;51.378;-1.342;2023-03-14T05:03:29;98293.86;;;16.87;37.32
66396;BME280;53207;51.378;-1.342;2023-03-14T05:05:57;98295.99;;;16.82;37.36
66396;BME280;53207;51.378;-1.342;2023-03-14T05:08:24;98302.93;;;16.63;37.29
66396;BME280;53207;51.378;-1.342;2023-03-14T05:10:52;98311.97;;;16.58;37.32
66396;BME280;53207;51.378;-1.342;2023-03-14T05:13:19;98318.23;;;16.83;37.25
66396;BME280;53207;51.378;-1.342;2023-03-14T05:15:47;98324.78;;;16.84;37.21
66396;BME280;53207;51.378;-1.342;2023-03-14T05:18:14;98326.81;;;16.77;37.27
66396;BME280;53207;51.378;-1.342;2023-03-14T05:20:41;98326.99;;;17.05;37.23
66396;BME280;53207;51.378;-1.342;2023-03-14T05:23:09;98330.82;;;16.98;37.28
66396;BME280;53207;51.378;-1.342;2023-03-14T05:25:36;98336.76;;;16.76;37.17
66396;BME280;53207;51.378;-1.342;2023-03-14T05:28:04;98337.88;;;16.66;37.27
66396;BME280;53207;51.378;-1.342;2023-03-14T05:30:31;98343.30;;;16.68;37.23
66396;BME280;53207;51.378;-1.342;2023-03-14T05:32:58;98346.21;;;16.61;37.30
66396;BME280;53207;51.378;-1.342;2023-03-14T05:35:26;98346.17;;;16.63;37.26
66396;BME280;53207;51.378;-1.342;2023-03-14T05:37:53;98356.69;;;16.94;37.16
66396;BME280;53207;51.378;-1.342;2023-03-14T05:40:20;98365.22;;;16.58;37.27
66396;BME280;53207;51.378;-1.342;2023-03-14T05:42:47;98367.57;;;16.82;37.27
66396;BME280;53207;51.378;-1.342;2023-03-14T05:45:15;98368.02;;;16.61;37.19
66396;BME280;53207;51.378;-1.342;2023-03-14T05:47:42;98368.72;;;16.53;37.24
66396;BME280;53207;51.378;-1.342;2023-03-14T05:50:10;98373.02;;;16.59;37.15
66396;BME280;53207;51.378;-1.342;2023-03-14T05:52:38;98387.80;;;16.52;37.22
66396;BME280;53207;51.378;-1.342;2023-03-14T05:55:06;98388.98;;;16.84;37.09
66396;BME280;53207;51.378;-1.342;2023-03-14T05:57:33;98390.94;;;16.47;37.21
66396;BME280;53207;51.378;-1.342;2023-03-14T06:00:00;98395.76;;;16.70;37.21
66396;BME280;53207;51.378;-1.342;2023-03-14T06:02:28;98397.40;;;16.68;37.21
66396;BME280;53207;51.378;-1.342;2023-03-14T06:04:55;98397.76;;;16.67;37.19
66396;BME280;53207;51.378;-1.342;2023-03-14T06:07:22;98409.76;;;16.68;37.15
66396;BME280;53207;51.378;-1.342;2023-03-14T06:09:49;98416.52;;;16.38;37.16
66396;BME280;53207;51.378;-1.342;2023-03-14T06:12:17;98424.99;;;16.39;37.12
66396;BME280;53207;51.378;-1.342;2023-03-14T06:14:44;98425.73;;;16.75;37.03
66396;BME280;53207;51.378;-1.342;2023-03-14T06:17:11;98432.70;;;16.72;37.09
66396;BME280;53207;51.378;-1.342;2023-03-14T06:19:39;98440.11;;;16.60;37.26
66396;BME280;53207;51.378;-1.342;2023-03-14T06:22:06;98452.69;;;16.59;37.27
66396;BME280;53207;51.378;-1.342;2023-03-14T06:24:34;98464.33;;;16.49;37.37
66396;BME280;53207;51.378;-1.342;2023-03-14T06:27:01;98471.76;;;16.35;37.21
66396;BME280;53207;51.378;-1.342;2023-03-14T06:29:28;98479.47;;;16.48;37.35
66396;BME280;53207;51.378;-1.342;2023-03-14T06:31:56;98484.16;;;16.49;37.41
66396;BME280;53207;51.378;-1.342;2023-03-14T06:34:23;98490.43;;;16.64;37.31
66396;BME280;53207;51.378;-1.342;2023-03-14T06:36:50;98491.95;;;16.52;37.23
66396;BME280;53207;51.378;-1.342;2023-03-14T06:39:17;98496.78;;;16.93;37.11
66396;BME280;53207;51.378;-1.342;2023-03-14T06:41:45;98508.72;;;16.79;36.87
66396;BME280;53207;51.378;-1.342;2023-03-14T06:44:12;98518.62;;;16.72;37.08
66396;BME280;53207;51.378;-1.342;2023-03-14T06:46:39;98524.34;;;16.97;36.83
66396;BME280;53207;51.378;-1.342;2023-03-14T06:49:07;98537.02;;;17.20;36.59
66396;BME280;53207;51.378;-1.342;2023-03-14T06:51:34;98540.55;;;17.33;36.50
66396;BME280;53207;51.378;-1.342;2023-03-14T06:54:01;98543.97;;;17.53;36.27
66396;BME280;53207;51.378;-1.342;2023-03-14T06:56:29;98546.83;;;17.44;36.18
66396;BME280;53207;51.378;-1.342;2023-03-14T06:58:56;98551.99;;;17.65;35.97
66396;BME280;53207;51.378;-1.342;2023-03-14T07:01:26;98557.78;;;17.77;35.87
66396;BME280;53207;51.378;-1.342;2023-03-14T07:03:54;98561.28;;;17.95;35.70
66396;BME280;53207;51.378;-1.342;2023-03-14T07:06:21;98565.29;;;18.03;35.65
66396;BME280;53207;51.378;-1.342;2023-03-14T07:08:49;98567.75;;;17.91;35.59
66396;BME280;53207;51.378;-1.342;2023-03-14T07:11:16;98576.28;;;17.99;35.48
66396;BME280;53207;51.378;-1.342;2023-03-14T07:13:43;98586.98;;;18.10;35.36
66396;BME280;53207;51.378;-1.342;2023-03-14T07:16:11;98593.61;;;17.84;35.34
66396;BME280;53207;51.378;-1.342;2023-03-14T07:18:38;98601.83;;;18.21;35.44
66396;BME280;53207;51.378;-1.342;2023-03-14T07:21:06;98615.34;;;17.91;35.75
66396;BME280;53207;51.378;-1.342;2023-03-14T07:23:34;98619.78;;;18.28;36.01
66396;BME280;53207;51.378;-1.342;2023-03-14T07:26:01;98628.10;;;18.29;36.03
66396;BME280;53207;51.378;-1.342;2023-03-14T07:28:28;98632.32;;;18.28;36.57
66396;BME280;53207;51.378;-1.342;2023-03-14T07:30:56;98647.20;;;18.41;36.53
66396;BME280;53207;51.378;-1.342;2023-03-14T07:33:23;98652.42;;;18.45;36.76
66396;BME280;53207;51.378;-1.342;2023-03-14T07:35:51;98665.43;;;18.15;36.97
66396;BME280;53207;51.378;-1.342;2023-03-14T07:38:17;98678.78;;;18.13;36.92
66396;BME280;53207;51.378;-1.342;2023-03-14T07:40:45;98686.78;;;18.15;36.93
66396;BME280;53207;51.378;-1.342;2023-03-14T07:43:12;98695.78;;;18.62;36.73
66396;BME280;53207;51.378;-1.342;2023-03-14T07:45:39;98707.01;;;18.13;36.58
66396;BME280;53207;51.378;-1.342;2023-03-14T07:48:07;98712.79;;;18.50;36.43
66396;BME280;53207;51.378;-1.342;2023-03-14T07:50:34;98718.56;;;18.28;36.39
66396;BME280;53207;51.378;-1.342;2023-03-14T07:53:01;98731.39;;;18.34;36.41
66396;BME280;53207;51.378;-1.342;2023-03-14T07:55:29;98733.35;;;18.35;36.39
66396;BME280;53207;51.378;-1.342;2023-03-14T07:57:56;98741.78;;;18.70;36.26
66396;BME280;53207;51.378;-1.342;2023-03-14T08:00:23;98748.82;;;18.48;36.11
66396;BME280;53207;51.378;-1.342;2023-03-14T08:02:50;98757.47;;;18.41;36.17
66396;BME280;53207;51.378;-1.342;2023-03-14T08:05:18;98765.59;;;18.46;36.12
66396;BME280;53207;51.378;-1.342;2023-03-14T08:07:45;98775.82;;;18.90;36.14
66396;BME280;53207;51.378;-1.342;2023-03-14T08:10:13;98786.68;;;18.74;36.15
66396;BME280;53207;51.378;-1.342;2023-03-14T08:12:40;98799.63;;;18.43;36.12
66396;BME280;53207;51.378;-1.342;2023-03-14T08:15:08;98819.77;;;18.38;36.14
66396;BME280;53207;51.378;-1.342;2023-03-14T08:17:35;98829.20;;;18.40;36.05
66396;BME280;53207;51.378;-1.342;2023-03-14T08:20:03;98836.31;;;18.33;36.02
66396;BME280;53207;51.378;-1.342;2023-03-14T08:22:31;98848.65;;;18.34;35.92
66396;BME280;53207;51.378;-1.342;2023-03-14T08:24:58;98857.91;;;18.54;35.86
66396;BME280;53207;51.378;-1.342;2023-03-14T08:27:25;98864.55;;;18.53;35.70
66396;BME280;53207;51.378;-1.342;2023-03-14T08:29:53;98871.54;;;18.30;35.52
66396;BME280;53207;51.378;-1.342;2023-03-14T08:32:20;98871.30;;;18.36;35.41
66396;BME280;53207;51.378;-1.342;2023-03-14T08:34:47;98885.42;;;18.40;35.34
66396;BME280;53207;51.378;-1.342;2023-03-14T08:37:15;98897.28;;;18.86;35.35
66396;BME280;53207;51.378;-1.342;2023-03-14T08:39:42;98910.26;;;18.39;35.31
66396;BME280;53207;51.378;-1.342;2023-03-14T08:42:09;98919.89;;;18.49;35.11
66396;BME280;53207;51.378;-1.342;2023-03-14T08:44:36;98927.88;;;18.54;35.11
66396;BME280;53207;51.378;-1.342;2023-03-14T08:47:04;98931.26;;;18.54;35.11
66396;BME280;53207;51.378;-1.342;2023-03-14T08:49:31;98941.43;;;18.52;35.20
66396;BME280;53207;51.378;-1.342;2023-03-14T08:51:58;98950.25;;;18.93;35.32
66396;BME280;53207;51.378;-1.342;2023-03-14T08:54:26;98956.25;;;18.46;35.30
66396;BME280;53207;51.378;-1.342;2023-03-14T08:56:53;98968.62;;;18.45;35.33
66396;BME280;53207;51.378;-1.342;2023-03-14T08:59:20;98973.27;;;18.39;35.33
66396;BME280;53207;51.378;-1.342;2023-03-14T09:01:47;98977.56;;;18.62;35.30
66396;BME280;53207;51.378;-1.342;2023-03-14T09:04:15;98985.86;;;18.30;35.27
66396;BME280;53207;51.378;-1.342;2023-03-14T09:06:42;98996.31;;;18.27;35.26
66396;BME280;53207;51.378;-1.342;2023-03-14T09:09:09;99003.43;;;18.52;35.13
66396;BME280;53207;51.378;-1.342;2023-03-14T09:11:36;99012.97;;;18.27;35.11
66396;BME280;53207;51.378;-1.342;2023-03-14T09:14:04;99020.99;;;18.22;35.14
66396;BME280;53207;51.378;-1.342;2023-03-14T09:16:32;99028.27;;;18.18;35.12
66396;BME280;53207;51.378;-1.342;2023-03-14T09:19:00;99041.53;;;18.19;35.08
66396;BME280;53207;51.378;-1.342;2023-03-14T09:21:27;99055.06;;;18.17;35.12
66396;BME280;53207;51.378;-1.342;2023-03-14T09:23:55;99065.26;;;18.17;35.11
66396;BME280;53207;51.378;-1.342;2023-03-14T09:26:22;99075.91;;;18.39;35.15
66396;BME280;53207;51.378;-1.342;2023-03-14T09:28:49;99084.12;;;18.14;35.04
66396;BME280;53207;51.378;-1.342;2023-03-14T09:31:17;99094.00;;;18.37;35.09
66396;BME280;53207;51.378;-1.342;2023-03-14T09:33:44;99102.67;;;18.11;35.14
66396;BME280;53207;51.378;-1.342;2023-03-14T09:36:11;99112.08;;;18.32;35.10
66396;BME280;53207;51.378;-1.342;2023-03-14T09:38:38;99119.12;;;18.06;35.06
66396;BME280;53207;51.378;-1.342;2023-03-14T09:41:14;99128.04;;;18.30;35.08
66396;BME280;53207;51.378;-1.342;2023-03-14T09:43:44;99140.27;;;17.96;35.21
66396;BME280;53207;51.378;-1.342;2023-03-14T09:46:12;99145.65;;;18.31;35.07
66396;BME280;53207;51.378;-1.342;2023-03-14T09:48:41;99155.65;;;18.34;35.02
66396;BME280;53207;51.378;-1.342;2023-03-14T09:51:14;99160.17;;;18.04;35.09
66396;BME280;53207;51.378;-1.342;2023-03-14T09:53:43;99164.60;;;18.33;35.31
66396;BME280;53207;51.378;-1.342;2023-03-14T09:56:13;99168.04;;;18.31;35.14
66396;BME280;53207;51.378;-1.342;2023-03-14T09:58:47;99173.66;;;18.53;35.25
66396;BME280;53207;51.378;-1.342;2023-03-14T10:01:16;99177.14;;;18.26;35.38
66396;BME280;53207;51.378;-1.342;2023-03-14T10:03:47;99187.10;;;18.33;35.35
66396;BME280;53207;51.378;-1.342;2023-03-14T10:06:15;99197.30;;;18.06;35.48
66396;BME280;53207;51.378;-1.342;2023-03-14T10:08:42;99205.23;;;18.11;35.43
66396;BME280;53207;51.378;-1.342;2023-03-14T10:11:14;99207.12;;;18.39;35.45
66396;BME280;53207;51.378;-1.342;2023-03-14T10:14:03;99211.72;;;18.11;35.50
66396;BME280;53207;51.378;-1.342;2023-03-14T10:16:32;99217.31;;;18.10;35.60
66396;BME280;53207;51.378;-1.342;2023-03-14T10:19:03;99220.35;;;18.33;35.61
66396;BME280;53207;51.378;-1.342;2023-03-14T10:21:36;99226.52;;;18.33;35.69
66396;BME280;53207;51.378;-1.342;2023-03-14T10:24:15;99230.42;;;18.37;35.60
66396;BME280;53207;51.378;-1.342;2023-03-14T10:26:43;99239.31;;;18.32;35.72
66396;BME280;53207;51.378;-1.342;2023-03-14T10:29:14;99244.46;;;18.13;35.64
66396;BME280;53207;51.378;-1.342;2023-03-14T10:31:52;99251.84;;;18.31;35.70
66396;BME280;53207;51.378;-1.342;2023-03-14T10:34:24;99262.83;;;18.54;35.75
66396;BME280;53207;51.378;-1.342;2023-03-14T10:36:54;99269.51;;;18.03;35.81
66396;BME280;53207;51.378;-1.342;2023-03-14T10:39:26;99274.79;;;17.99;35.85
66396;BME280;53207;51.378;-1.342;2023-03-14T10:41:56;99284.07;;;18.52;35.82
66396;BME280;53207;51.378;-1.342;2023-03-14T10:44:30;99289.95;;;18.18;35.88
66396;BME280;53207;51.378;-1.342;2023-03-14T10:47:00;99290.64;;;18.39;35.90
66396;BME280;53207;51.378;-1.342;2023-03-14T10:49:30;99285.63;;;18.36;35.89
66396;BME280;53207;51.378;-1.342;2023-03-14T10:52:02;99292.25;;;17.94;35.84
66396;BME280;53207;51.378;-1.342;2023-03-14T10:54:39;99300.87;;;17.92;35.82
66396;BME280;53207;51.378;-1.342;2023-03-14T10:57:06;99311.00;;;18.20;35.79
66396;BME280;53207;51.378;-1.342;2023-03-14T10:59:36;99313.32;;;18.23;35.76
66396;BME280;53207;51.378;-1.342;2023-03-14T11:02:19;99314.41;;;18.03;35.99
66396;BME280;53207;51.378;-1.342;2023-03-14T11:05:01;99322.95;;;18.18;35.78
66396;BME280;53207;51.378;-1.342;2023-03-14T11:07:35;99326.97;;;18.18;35.79
66396;BME280;53207;51.378;-1.342;2023-03-14T11:10:14;99335.64;;;18.16;35.79
66396;BME280;53207;51.378;-1.342;2023-03-14T11:12:51;99343.65;;;18.34;35.86
66396;BME280;53207;51.378;-1.342;2023-03-14T11:15:23;99348.40;;;18.29;35.93
66396;BME280;53207;51.378;-1.342;2023-03-14T11:18:09;99351.70;;;17.81;35.86
66396;BME280;53207;51.378;-1.342;2023-03-14T11:20:44;99356.25;;;17.81;35.91
66396;BME280;53207;51.378;-1.342;2023-03-14T11:23:14;99361.60;;;18.41;35.75
66396;BME280;53207;51.378;-1.342;2023-03-14T11:25:47;99371.46;;;17.86;35.78
66396;BME280;53207;51.378;-1.342;2023-03-14T11:28:20;99376.48;;;18.19;35.71
66396;BME280;53207;51.378;-1.342;2023-03-14T11:30:52;99387.16;;;18.34;35.82
66396;BME280;53207;51.378;-1.342;2023-03-14T11:33:24;99393.59;;;17.88;35.75
66396;BME280;53207;51.378;-1.342;2023-03-14T11:35:59;99395.84;;;17.96;35.66
66396;BME280;53207;51.378;-1.342;2023-03-14T11:38:33;99404.51;;;17.86;35.76
66396;BME280;53207;51.378;-1.342;2023-03-14T11:41:09;99413.61;;;17.88;35.68
66396;BME280;53207;51.378;-1.342;2023-03-14T11:43:39;99417.57;;;18.05;35.75
66396;BME280;53207;51.378;-1.342;2023-03-14T11:46:10;99423.92;;;18.01;35.73
66396;BME280;53207;51.378;-1.342;2023-03-14T11:48:44;99428.56;;;18.13;35.77
66396;BME280;53207;51.378;-1.342;2023-03-14T11:51:20;99430.25;;;17.70;35.65
66396;BME280;53207;51.378;-1.342;2023-03-14T11:53:54;99435.31;;;18.01;35.57
66396;BME280;53207;51.378;-1.342;2023-03-14T11:56:27;99438.69;;;18.10;35.67
66396;BME280;53207;51.378;-1.342;2023-03-14T11:58:59;99442.61;;;17.98;35.50
66396;BME280;53207;51.378;-1.342;2023-03-14T12:01:36;99443.60;;;17.65;35.52
66396;BME280;53207;51.378;-1.342;2023-03-14T12:04:13;99450.12;;;17.87;35.51
66396;BME280;53207;51.378;-1.342;2023-03-14T12:06:48;99454.14;;;17.59;35.52
66396;BME280;53207;51.378;-1.342;2023-03-14T12:09:17;99455.35;;;17.84;35.51
66396;BME280;53207;51.378;-1.342;2023-03-14T12:11:48;99461.69;;;18.13;35.35
66396;BME280;53207;51.378;-1.342;2023-03-14T12:14:22;99468.15;;;17.96;35.29
66396;BME280;53207;51.378;-1.342;2023-03-14T12:16:54;99475.81;;;18.12;35.34
66396;BME280;53207;51.378;-1.342;2023-03-14T12:19:31;99472.29;;;18.11;35.34
66396;BME280;53207;51.378;-1.342;2023-03-14T12:22:05;99476.06;;;18.09;35.37
66396;BME280;53207;51.378;-1.342;2023-03-14T12:24:36;99473.26;;;18.20;35.26
66396;BME280;53207;51.378;-1.342;2023-03-14T12:27:05;99473.35;;;18.18;35.25
66396;BME280;53207;51.378;-1.342;2023-03-14T12:29:32;99473.79;;;18.15;35.28
66396;BME280;53207;51.378;-1.342;2023-03-14T12:32:24;99482.07;;;17.92;35.31
66396;BME280;53207;51.378;-1.342;2023-03-14T12:34:51;99485.18;;;18.21;35.19
66396;BME280;53207;51.378;-1.342;2023-03-14T12:37:28;99481.81;;;17.95;35.23
66396;BME280;53207;51.378;-1.342;2023-03-14T12:40:16;99484.12;;;17.98;35.16
66396;BME280;53207;51.378;-1.342;2023-03-14T12:42:54;99487.74;;;17.96;35.16
66396;BME280;53207;51.378;-1.342;2023-03-14T12:45:27;99489.26;;;17.67;35.16
66396;BME280;53207;51.378;-1.342;2023-03-14T12:48:02;99489.94;;;17.94;35.13
66396;BME280;53207;51.378;-1.342;2023-03-14T12:50:35;99486.17;;;18.22;35.06
66396;BME280;53207;51.378;-1.342;2023-03-14T12:53:24;99491.75;;;17.62;35.16
66396;BME280;53207;51.378;-1.342;2023-03-14T12:55:59;99490.24;;;17.71;35.06
66396;BME280;53207;51.378;-1.342;2023-03-14T12:58:36;99491.33;;;17.95;35.07
66396;BME280;53207;51.378;-1.342;2023-03-14T13:01:07;99493.89;;;18.15;35.08